Impacts TAF Board
For situational awareness. Not to be used for flight planning purposes.
IDs:

KTPA - Tampa Intl Arpt, FL, US

Issued at 1740 UTC 21 Sep 2021
Updated at 1935 UTC 21 Sep 2021
Potential Impact None Slight Moderate High
Time1853Z 21/20Z 21/21Z 21/22Z 21/23Z 22/00Z 22/01Z 22/02Z 22/03Z 22/04Z 22/05Z 22/06Z 22/07Z 22/08Z>>
Type OBS PRVL PRVL PRVL PRVL PRVL PRVL PRVL PRVL PRVL PRVL PRVL PRVL PRVL
VIS 10 >6 >6 >6 >6 >6 >6 >6 >6 >6 >6 >6 >6 >6
CIG -- 50 50 50 50 50 50 50 250 250 250 250 250 250
Cover SCT BKN BKN BKN BKN BKN BKN BKN BKN BKN BKN BKN BKN BKN
FltCat VFR VFR VFR VFR VFR VFR VFR VFR VFR VFR VFR VFR VFR VFR
WX -- VCTS VCTS VCTS VCTS VCSH VCSH VCSH -- -- -- -- -- --
WDir 220 290 290 290 290 80 80 80 VRB VRB VRB VRB VRB VRB
WSpd 5 7 7 7 7 5 5 5 3 3 3 3 3 3
WGst -- -- -- -- -- -- -- -- -- -- -- -- -- --
Raw TAF
KTPA 211740Z 2118/2224 26006KT P6SM VCSH SCT035 SCT200
  FM212000 29007KT P6SM VCTS SCT030CB BKN050
  FM220000 08005KT P6SM VCSH SCT030 BKN050
  FM220300 VRB03KT P6SM FEW020 SCT120 BKN250
  FM221200 VRB03KT P6SM VCSH SCT020 SCT120 BKN250
  FM221500 22005KT P6SM VCTS SCT025CB SCT120 BKN250
  FM221800 25007KT P6SM VCTS SCT030CB BKN050


Raw METAR
KTPA 211853Z 22005KT 10SM SCT035CB SCT250 32/23 A3001 RMK AO2 SLP162 CB S MOV SE CB DSNT NE-SE T03170233
KTPA 211753Z 24004KT 10SM SCT035 SCT250 32/23 A3004 RMK AO2 SLP172 T03170228 10317 20256 58013
KTPA 211653Z 26006KT 10SM SCT035 SCT200 31/22 A3006 RMK AO2 SLP180 CB DSNT W T03110222

METAR Board
Radar Display
Forecast Discussion
For situational awareness. Not to be used for flight planning purposes.